logo
Search for airport 
image banner adimage banner adimage banner ad
image banner ad

EDLP - Paderborn/Lippstadt

Located in Paderborn, Germany

ICAO - EDLP, IATA - PAD

Data provided by Airmate  

General information

Coordinates: N51°36'51" E8°36'59"
Elevation is 699 feet MSL.
Magnetic variation is 2.1000° East
Rated:
View ratings:
[VIEW]
View others Airports in North Rhine-Westphalia

Operational data

Special qualification required
Current time UTC:
Current local time:
Weather
METAR: EDLP 281150Z 26004KT 170V340 6000 SCT011 06/03 Q1022
TAF: TAF EDLP 281100Z 2812/2912 26004KT 9999 SCT015 BECMG 2817/2820 17006KT BECMG 2904/2907 17011KT
View NOTAMs / SUP AIP / TFR affecting this airport [VIEW]
Communications frequencies: [VIEW]

Runways:

RWY identifierQFULength (ft)Width (ft)SurfaceLDA (ft)
0657°7152148ASPH7152
24237°7152148ASPH7152

Airport contact information

Address: Paderborn Germany

Handlers

Paderborn/Lippstadt Airport

Paderborn/Lippstadt Airport

Satellite view of EDLP